Archival Weather

Rochelle Muni/Koritz Fld

Rochelle, Illinois (KRPJ)

Report from: Sunday, February 5, 2023 3:55 PM CST
Current time: Saturday, July 13, 2024 7:41 PM CDT

Current weather – Weather history – Daily summaries
Weather forecast

Temperature2.0°C (35.6°F)
Wind chill-2.5°C (27.5°F)
Dew point-1.6°C (29.1°F)
Winds 10 kts (5.1 m/s, 11.5 mph) West-Northwest (290°)
Visibility10 mi. (16.1 km)
Clouds Sky clear
Altimeter30.01 in.Hg (1016 mB)
Relative humidity77 %
Density altitude-1,601 ft. (-488 m)
Remarks Fully automated report
Automated weather observing station with precipitation discriminator
Lightning detection system not operating
Flight conditions Visual Meteorological Conditions
Raw dataKRPJ 052155Z AUTO 29010KT 10SM CLR 02/M02 A3001 RMK AO2 T00201016 TSNO
An error has occurred. This application may no longer respond until reloaded. Reload 🗙